sensor_id;sensor_type;location;lat;lon;timestamp;pressure;altitude;pressure_sealevel;temperature;humidity
66398;BME280;54877;51.504;3.894;2023-04-29T00:01:39;101684.25;;;12.91;64.84
66398;BME280;54877;51.504;3.894;2023-04-29T00:04:04;101675.69;;;12.84;64.99
66398;BME280;54877;51.504;3.894;2023-04-29T00:06:30;101676.63;;;12.83;64.89
66398;BME280;54877;51.504;3.894;2023-04-29T00:08:55;101677.66;;;13.00;64.36
66398;BME280;54877;51.504;3.894;2023-04-29T00:11:20;101679.44;;;12.99;64.36
66398;BME280;54877;51.504;3.894;2023-04-29T00:13:46;101673.53;;;12.92;64.07
66398;BME280;54877;51.504;3.894;2023-04-29T00:16:11;101685.16;;;12.90;64.18
66398;BME280;54877;51.504;3.894;2023-04-29T00:18:37;101679.16;;;13.05;63.92
66398;BME280;54877;51.504;3.894;2023-04-29T00:21:03;101684.97;;;12.94;64.15
66398;BME280;54877;51.504;3.894;2023-04-29T00:23:34;101685.47;;;12.84;64.79
66398;BME280;54877;51.504;3.894;2023-04-29T00:26:00;101690.72;;;12.85;64.62
66398;BME280;54877;51.504;3.894;2023-04-29T00:28:25;101694.78;;;12.92;64.22
66398;BME280;54877;51.504;3.894;2023-04-29T00:30:50;101697.06;;;12.81;63.92
66398;BME280;54877;51.504;3.894;2023-04-29T00:33:16;101703.63;;;12.74;63.31
66398;BME280;54877;51.504;3.894;2023-04-29T00:35:41;101703.53;;;12.76;63.35
66398;BME280;54877;51.504;3.894;2023-04-29T00:38:07;101704.25;;;12.79;63.43
66398;BME280;54877;51.504;3.894;2023-04-29T00:40:33;101704.25;;;12.79;63.42
66398;BME280;54877;51.504;3.894;2023-04-29T00:42:59;101713.47;;;12.72;63.66
66398;BME280;54877;51.504;3.894;2023-04-29T00:45:25;101710.94;;;12.69;63.99
66398;BME280;54877;51.504;3.894;2023-04-29T00:47:51;101706.38;;;12.53;64.62
66398;BME280;54877;51.504;3.894;2023-04-29T00:50:16;101715.59;;;12.64;64.39
66398;BME280;54877;51.504;3.894;2023-04-29T00:52:42;101708.09;;;12.54;64.63
66398;BME280;54877;51.504;3.894;2023-04-29T00:55:08;101720.03;;;12.64;64.43
66398;BME280;54877;51.504;3.894;2023-04-29T00:57:36;101717.50;;;12.41;64.90
66398;BME280;54877;51.504;3.894;2023-04-29T01:00:03;101714.66;;;12.65;64.41
66398;BME280;54877;51.504;3.894;2023-04-29T01:02:29;101720.38;;;12.56;64.82
66398;BME280;54877;51.504;3.894;2023-04-29T01:04:55;101711.19;;;12.63;64.36
66398;BME280;54877;51.504;3.894;2023-04-29T01:07:34;101722.91;;;12.59;64.57
66398;BME280;54877;51.504;3.894;2023-04-29T01:10:52;101712.03;;;12.45;65.06
66398;BME280;54877;51.504;3.894;2023-04-29T01:14:00;101715.84;;;12.58;65.19
66398;BME280;54877;51.504;3.894;2023-04-29T01:16:10;101731.09;;;12.73;64.77
66398;BME280;54877;51.504;3.894;2023-04-29T01:18:42;101727.00;;;12.66;64.85
66398;BME280;54877;51.504;3.894;2023-04-29T01:21:13;101719.56;;;12.54;64.90
66398;BME280;54877;51.504;3.894;2023-04-29T01:23:39;101729.28;;;12.75;64.22
66398;BME280;54877;51.504;3.894;2023-04-29T01:26:05;101732.31;;;12.66;64.58
66398;BME280;54877;51.504;3.894;2023-04-29T01:28:42;101743.59;;;12.51;65.29
66398;BME280;54877;51.504;3.894;2023-04-29T01:31:17;101741.25;;;12.45;65.36
66398;BME280;54877;51.504;3.894;2023-04-29T01:39:49;101737.50;;;12.49;65.06
66398;BME280;54877;51.504;3.894;2023-04-29T01:42:29;101739.00;;;12.34;65.35
66398;BME280;54877;51.504;3.894;2023-04-29T01:45:04;101741.88;;;12.30;65.35
66398;BME280;54877;51.504;3.894;2023-04-29T01:47:32;101744.50;;;12.31;65.42
66398;BME280;54877;51.504;3.894;2023-04-29T01:49:57;101749.63;;;12.34;65.14
66398;BME280;54877;51.504;3.894;2023-04-29T01:52:23;101754.25;;;12.31;65.21
66398;BME280;54877;51.504;3.894;2023-04-29T01:54:48;101754.50;;;12.25;65.01
66398;BME280;54877;51.504;3.894;2023-04-29T01:57:14;101758.19;;;12.21;64.78
66398;BME280;54877;51.504;3.894;2023-04-29T01:59:40;101751.34;;;12.15;65.15
66398;BME280;54877;51.504;3.894;2023-04-29T02:02:06;101751.66;;;12.08;65.52
66398;BME280;54877;51.504;3.894;2023-04-29T02:04:31;101749.44;;;12.19;64.95
66398;BME280;54877;51.504;3.894;2023-04-29T02:06:58;101761.03;;;12.16;65.14
66398;BME280;54877;51.504;3.894;2023-04-29T02:09:23;101756.47;;;12.20;65.01
66398;BME280;54877;51.504;3.894;2023-04-29T02:11:49;101758.19;;;12.21;65.08
66398;BME280;54877;51.504;3.894;2023-04-29T02:14:14;101758.47;;;12.15;65.05
66398;BME280;54877;51.504;3.894;2023-04-29T02:16:42;101756.34;;;12.23;64.90
66398;BME280;54877;51.504;3.894;2023-04-29T02:19:09;101760.78;;;12.22;64.97
66398;BME280;54877;51.504;3.894;2023-04-29T02:21:35;101766.47;;;12.13;64.83
66398;BME280;54877;51.504;3.894;2023-04-29T02:24:00;101768.34;;;12.11;64.83
66398;BME280;54877;51.504;3.894;2023-04-29T02:26:26;101773.28;;;12.20;64.66
66398;BME280;54877;51.504;3.894;2023-04-29T02:28:51;101783.16;;;12.17;64.56
66398;BME280;54877;51.504;3.894;2023-04-29T02:31:17;101784.72;;;12.21;64.41
66398;BME280;54877;51.504;3.894;2023-04-29T02:33:42;101774.63;;;12.30;64.20
66398;BME280;54877;51.504;3.894;2023-04-29T02:36:07;101784.84;;;12.18;64.67
66398;BME280;54877;51.504;3.894;2023-04-29T02:38:33;101786.50;;;12.00;65.04
66398;BME280;54877;51.504;3.894;2023-04-29T02:40:58;101790.25;;;11.95;65.19
66398;BME280;54877;51.504;3.894;2023-04-29T02:43:23;101795.38;;;11.99;65.03
66398;BME280;54877;51.504;3.894;2023-04-29T02:45:49;101796.38;;;11.97;65.28
66398;BME280;54877;51.504;3.894;2023-04-29T02:48:14;101804.16;;;12.01;65.31
66398;BME280;54877;51.504;3.894;2023-04-29T02:50:39;101801.06;;;12.12;64.86
66398;BME280;54877;51.504;3.894;2023-04-29T02:53:05;101802.78;;;12.13;64.81
66398;BME280;54877;51.504;3.894;2023-04-29T02:55:30;101800.94;;;12.15;64.36
66398;BME280;54877;51.504;3.894;2023-04-29T02:57:56;101802.53;;;12.19;64.36
66398;BME280;54877;51.504;3.894;2023-04-29T03:00:21;101805.72;;;12.27;64.13
66398;BME280;54877;51.504;3.894;2023-04-29T03:02:47;101807.97;;;12.16;63.99
66398;BME280;54877;51.504;3.894;2023-04-29T03:05:13;101813.50;;;12.10;63.75
66398;BME280;54877;51.504;3.894;2023-04-29T03:07:38;101808.09;;;12.13;63.67
66398;BME280;54877;51.504;3.894;2023-04-29T03:10:04;101807.22;;;12.12;63.45
66398;BME280;54877;51.504;3.894;2023-04-29T03:12:30;101811.69;;;12.12;63.52
66398;BME280;54877;51.504;3.894;2023-04-29T03:14:55;101817.97;;;12.09;63.22
66398;BME280;54877;51.504;3.894;2023-04-29T03:17:21;101810.69;;;11.93;63.83
66398;BME280;54877;51.504;3.894;2023-04-29T03:19:46;101817.22;;;12.06;63.62
66398;BME280;54877;51.504;3.894;2023-04-29T03:22:11;101815.56;;;12.03;63.52
66398;BME280;54877;51.504;3.894;2023-04-29T03:24:37;101810.63;;;12.16;63.18
66398;BME280;54877;51.504;3.894;2023-04-29T03:27:02;101807.91;;;12.17;62.93
66398;BME280;54877;51.504;3.894;2023-04-29T03:29:29;101808.50;;;12.24;62.93
66398;BME280;54877;51.504;3.894;2023-04-29T03:31:55;101810.00;;;12.31;62.76
66398;BME280;54877;51.504;3.894;2023-04-29T03:34:21;101818.69;;;12.34;62.73
66398;BME280;54877;51.504;3.894;2023-04-29T03:36:46;101815.06;;;12.37;62.91
66398;BME280;54877;51.504;3.894;2023-04-29T03:39:12;101810.41;;;12.42;62.68
66398;BME280;54877;51.504;3.894;2023-04-29T03:41:37;101825.28;;;12.46;62.89
66398;BME280;54877;51.504;3.894;2023-04-29T03:44:03;101821.31;;;12.56;63.08
66398;BME280;54877;51.504;3.894;2023-04-29T03:46:29;101818.47;;;12.61;62.66
66398;BME280;54877;51.504;3.894;2023-04-29T03:48:55;101826.22;;;12.65;62.42
66398;BME280;54877;51.504;3.894;2023-04-29T03:51:23;101817.38;;;12.65;62.49
66398;BME280;54877;51.504;3.894;2023-04-29T03:53:49;101820.50;;;12.54;62.96
66398;BME280;54877;51.504;3.894;2023-04-29T03:56:15;101828.75;;;12.68;62.59
66398;BME280;54877;51.504;3.894;2023-04-29T03:58:41;101824.06;;;12.75;62.30
66398;BME280;54877;51.504;3.894;2023-04-29T04:01:06;101817.88;;;12.74;62.26
66398;BME280;54877;51.504;3.894;2023-04-29T04:03:32;101821.44;;;12.73;62.53
66398;BME280;54877;51.504;3.894;2023-04-29T04:05:57;101825.84;;;12.74;62.40
66398;BME280;54877;51.504;3.894;2023-04-29T04:08:23;101824.94;;;12.75;62.56
66398;BME280;54877;51.504;3.894;2023-04-29T04:10:48;101824.81;;;12.78;62.09
66398;BME280;54877;51.504;3.894;2023-04-29T04:13:14;101824.50;;;12.84;62.41
66398;BME280;54877;51.504;3.894;2023-04-29T04:15:39;101833.31;;;12.86;62.01
66398;BME280;54877;51.504;3.894;2023-04-29T04:18:05;101834.47;;;12.79;62.43
66398;BME280;54877;51.504;3.894;2023-04-29T04:20:30;101839.00;;;12.77;62.51
66398;BME280;54877;51.504;3.894;2023-04-29T04:22:58;101840.44;;;12.84;62.39
66398;BME280;54877;51.504;3.894;2023-04-29T04:25:24;101842.06;;;12.88;62.38
66398;BME280;54877;51.504;3.894;2023-04-29T04:27:49;101849.25;;;12.86;62.50
66398;BME280;54877;51.504;3.894;2023-04-29T04:30:14;101849.78;;;12.94;62.08
66398;BME280;54877;51.504;3.894;2023-04-29T04:32:40;101852.19;;;13.01;61.98
66398;BME280;54877;51.504;3.894;2023-04-29T04:35:05;101855.75;;;13.00;61.43
66398;BME280;54877;51.504;3.894;2023-04-29T04:37:31;101859.47;;;12.95;61.93
66398;BME280;54877;51.504;3.894;2023-04-29T04:39:56;101864.66;;;12.98;61.91
66398;BME280;54877;51.504;3.894;2023-04-29T04:42:22;101867.16;;;13.02;61.93
66398;BME280;54877;51.504;3.894;2023-04-29T04:44:47;101866.50;;;12.96;62.13
66398;BME280;54877;51.504;3.894;2023-04-29T04:47:13;101874.09;;;12.85;62.65
66398;BME280;54877;51.504;3.894;2023-04-29T04:49:38;101877.06;;;12.98;62.23
66398;BME280;54877;51.504;3.894;2023-04-29T04:52:03;101882.53;;;12.95;62.36
66398;BME280;54877;51.504;3.894;2023-04-29T04:54:29;101887.16;;;12.90;62.85
66398;BME280;54877;51.504;3.894;2023-04-29T04:56:54;101891.34;;;12.95;62.60
66398;BME280;54877;51.504;3.894;2023-04-29T04:59:20;101894.84;;;12.98;62.60
66398;BME280;54877;51.504;3.894;2023-04-29T05:01:45;101896.28;;;13.05;62.36
66398;BME280;54877;51.504;3.894;2023-04-29T05:04:10;101894.31;;;13.10;62.61
66398;BME280;54877;51.504;3.894;2023-04-29T05:06:36;101903.13;;;13.12;62.42
66398;BME280;54877;51.504;3.894;2023-04-29T05:09:01;101901.13;;;13.17;62.58
66398;BME280;54877;51.504;3.894;2023-04-29T05:11:27;101913.47;;;13.18;62.49
66398;BME280;54877;51.504;3.894;2023-04-29T05:13:52;101904.66;;;13.17;62.50
66398;BME280;54877;51.504;3.894;2023-04-29T05:16:17;101913.47;;;13.18;62.22
66398;BME280;54877;51.504;3.894;2023-04-29T05:18:43;101914.06;;;13.24;62.14
66398;BME280;54877;51.504;3.894;2023-04-29T05:21:11;101913.06;;;13.27;62.14
66398;BME280;54877;51.504;3.894;2023-04-29T05:23:37;101910.31;;;13.28;62.41
66398;BME280;54877;51.504;3.894;2023-04-29T05:26:02;101917.47;;;13.28;62.09
66398;BME280;54877;51.504;3.894;2023-04-29T05:28:28;101925.44;;;13.28;62.16
66398;BME280;54877;51.504;3.894;2023-04-29T05:30:53;101928.91;;;13.30;61.90
66398;BME280;54877;51.504;3.894;2023-04-29T05:33:18;101927.28;;;13.26;62.00
66398;BME280;54877;51.504;3.894;2023-04-29T05:35:44;101921.78;;;13.10;62.23
66398;BME280;54877;51.504;3.894;2023-04-29T05:38:10;101925.72;;;13.22;61.96
66398;BME280;54877;51.504;3.894;2023-04-29T05:40:35;101928.50;;;13.19;62.03
66398;BME280;54877;51.504;3.894;2023-04-29T05:43:00;101930.91;;;13.25;61.87
66398;BME280;54877;51.504;3.894;2023-04-29T05:45:26;101930.94;;;13.23;61.77
66398;BME280;54877;51.504;3.894;2023-04-29T05:47:51;101935.13;;;13.29;61.69
66398;BME280;54877;51.504;3.894;2023-04-29T05:50:17;101936.78;;;13.31;61.53
66398;BME280;54877;51.504;3.894;2023-04-29T05:52:42;101945.47;;;13.36;61.34
66398;BME280;54877;51.504;3.894;2023-04-29T05:55:07;101945.47;;;13.36;61.24
66398;BME280;54877;51.504;3.894;2023-04-29T05:57:33;101947.13;;;13.39;61.22
66398;BME280;54877;51.504;3.894;2023-04-29T05:59:58;101943.34;;;13.44;60.90
66398;BME280;54877;51.504;3.894;2023-04-29T06:02:24;101952.88;;;13.48;60.92
66398;BME280;54877;51.504;3.894;2023-04-29T06:04:50;101955.41;;;13.51;60.40
66398;BME280;54877;51.504;3.894;2023-04-29T06:07:16;101956.28;;;13.52;60.63
66398;BME280;54877;51.504;3.894;2023-04-29T06:09:41;101960.59;;;13.54;60.35
66398;BME280;54877;51.504;3.894;2023-04-29T06:12:08;101970.25;;;13.57;60.44
66398;BME280;54877;51.504;3.894;2023-04-29T06:14:33;101962.34;;;13.56;60.19
66398;BME280;54877;51.504;3.894;2023-04-29T06:16:59;101964.66;;;13.63;60.17
66398;BME280;54877;51.504;3.894;2023-04-29T06:19:24;101974.91;;;13.72;60.27
66398;BME280;54877;51.504;3.894;2023-04-29T06:21:50;101974.78;;;13.75;60.06
66398;BME280;54877;51.504;3.894;2023-04-29T06:24:15;101979.22;;;13.75;59.97
66398;BME280;54877;51.504;3.894;2023-04-29T06:26:40;101982.75;;;13.55;60.33
66398;BME280;54877;51.504;3.894;2023-04-29T06:29:06;101983.72;;;13.73;59.75
66398;BME280;54877;51.504;3.894;2023-04-29T06:31:31;101985.81;;;13.66;60.03
66398;BME280;54877;51.504;3.894;2023-04-29T06:33:56;101986.25;;;13.76;59.78
66398;BME280;54877;51.504;3.894;2023-04-29T06:36:22;101990.75;;;13.75;59.82
66398;BME280;54877;51.504;3.894;2023-04-29T06:38:47;101992.44;;;13.76;59.77
66398;BME280;54877;51.504;3.894;2023-04-29T06:41:12;102002.47;;;13.90;59.84
66398;BME280;54877;51.504;3.894;2023-04-29T06:43:38;102000.41;;;13.96;59.81
66398;BME280;54877;51.504;3.894;2023-04-29T06:46:03;102004.66;;;14.00;59.36
66398;BME280;54877;51.504;3.894;2023-04-29T06:48:29;102011.06;;;13.96;59.37
66398;BME280;54877;51.504;3.894;2023-04-29T06:50:55;102009.59;;;13.89;59.43
66398;BME280;54877;51.504;3.894;2023-04-29T06:53:22;102011.34;;;13.90;59.09
66398;BME280;54877;51.504;3.894;2023-04-29T06:55:48;102009.19;;;13.98;59.07
66398;BME280;54877;51.504;3.894;2023-04-29T06:58:14;102017.81;;;14.03;58.90
66398;BME280;54877;51.504;3.894;2023-04-29T07:00:42;102019.44;;;14.07;58.83
66398;BME280;54877;51.504;3.894;2023-04-29T07:03:09;102025.28;;;14.16;58.95
66398;BME280;54877;51.504;3.894;2023-04-29T07:05:35;102030.88;;;14.09;59.06
66398;BME280;54877;51.504;3.894;2023-04-29T07:08:01;102036.84;;;14.14;58.96
66398;BME280;54877;51.504;3.894;2023-04-29T07:10:27;102034.19;;;14.14;58.98
66398;BME280;54877;51.504;3.894;2023-04-29T07:12:53;102040.47;;;14.13;59.36
66398;BME280;54877;51.504;3.894;2023-04-29T07:15:19;102042.78;;;14.21;59.10
66398;BME280;54877;51.504;3.894;2023-04-29T07:17:44;102053.28;;;14.24;58.67
66398;BME280;54877;51.504;3.894;2023-04-29T07:20:09;102045.34;;;14.23;58.77
66398;BME280;54877;51.504;3.894;2023-04-29T07:22:35;102049.88;;;14.21;58.34
66398;BME280;54877;51.504;3.894;2023-04-29T07:25:01;102046.78;;;14.11;58.23
66398;BME280;54877;51.504;3.894;2023-04-29T07:27:26;102055.16;;;14.22;58.44
66398;BME280;54877;51.504;3.894;2023-04-29T07:29:52;102049.47;;;14.11;58.09
66398;BME280;54877;51.504;3.894;2023-04-29T07:32:17;102052.63;;;14.19;58.25
66398;BME280;54877;51.504;3.894;2023-04-29T07:34:43;102045.78;;;14.13;58.50
66398;BME280;54877;51.504;3.894;2023-04-29T07:37:08;102052.66;;;13.99;60.03
66398;BME280;54877;51.504;3.894;2023-04-29T07:39:33;102057.59;;;14.08;60.21
66398;BME280;54877;51.504;3.894;2023-04-29T07:41:59;102056.44;;;14.13;60.77
66398;BME280;54877;51.504;3.894;2023-04-29T07:44:25;102058.75;;;14.21;60.97
66398;BME280;54877;51.504;3.894;2023-04-29T07:46:50;102059.91;;;14.16;61.26
66398;BME280;54877;51.504;3.894;2023-04-29T07:49:15;102064.81;;;14.25;61.48
66398;BME280;54877;51.504;3.894;2023-04-29T07:51:41;102065.09;;;14.19;61.87
66398;BME280;54877;51.504;3.894;2023-04-29T07:54:06;102062.56;;;14.36;61.54
66398;BME280;54877;51.504;3.894;2023-04-29T07:56:32;102062.84;;;14.48;61.36
66398;BME280;54877;51.504;3.894;2023-04-29T07:58:58;102071.06;;;14.44;61.58
66398;BME280;54877;51.504;3.894;2023-04-29T08:01:25;102074.88;;;14.57;60.76
66398;BME280;54877;51.504;3.894;2023-04-29T08:03:50;102067.16;;;14.51;60.92
66398;BME280;54877;51.504;3.894;2023-04-29T08:06:16;102069.81;;;14.51;60.91
66398;BME280;54877;51.504;3.894;2023-04-29T08:08:44;102080.56;;;14.49;60.39
66398;BME280;54877;51.504;3.894;2023-04-29T08:11:14;102085.56;;;14.37;60.48
66398;BME280;54877;51.504;3.894;2023-04-29T08:13:43;102082.03;;;14.36;60.75
66398;BME280;54877;51.504;3.894;2023-04-29T08:16:09;102088.75;;;14.45;60.64
66398;BME280;54877;51.504;3.894;2023-04-29T08:18:35;102095.69;;;14.49;60.45
66398;BME280;54877;51.504;3.894;2023-04-29T08:21:00;102092.25;;;14.47;60.20
66398;BME280;54877;51.504;3.894;2023-04-29T08:23:26;102086.22;;;14.42;59.98
66398;BME280;54877;51.504;3.894;2023-04-29T08:25:52;102088.63;;;14.48;60.08
66398;BME280;54877;51.504;3.894;2023-04-29T08:28:19;102080.94;;;14.60;59.56
66398;BME280;54877;51.504;3.894;2023-04-29T08:30:44;102082.59;;;14.63;59.53
66398;BME280;54877;51.504;3.894;2023-04-29T08:33:09;102085.63;;;14.74;59.78
66398;BME280;54877;51.504;3.894;2023-04-29T08:35:36;102093.38;;;14.97;58.97
66398;BME280;54877;51.504;3.894;2023-04-29T08:38:03;102088.50;;;15.24;58.39
66398;BME280;54877;51.504;3.894;2023-04-29T08:40:29;102098.34;;;15.41;57.74
66398;BME280;54877;51.504;3.894;2023-04-29T08:42:55;102092.44;;;15.70;57.00
66398;BME280;54877;51.504;3.894;2023-04-29T08:45:22;102086.78;;;15.76;56.62
66398;BME280;54877;51.504;3.894;2023-04-29T08:47:49;102091.88;;;15.98;56.13
66398;BME280;54877;51.504;3.894;2023-04-29T08:50:16;102081.63;;;16.23;55.04
66398;BME280;54877;51.504;3.894;2023-04-29T08:52:42;102091.88;;;16.30;54.47
66398;BME280;54877;51.504;3.894;2023-04-29T08:55:07;102092.16;;;16.59;54.22
66398;BME280;54877;51.504;3.894;2023-04-29T08:57:36;102091.56;;;16.69;54.05
66398;BME280;54877;51.504;3.894;2023-04-29T09:00:03;102101.41;;;16.69;53.01
66398;BME280;54877;51.504;3.894;2023-04-29T09:02:32;102106.97;;;16.49;52.39
66398;BME280;54877;51.504;3.894;2023-04-29T09:05:07;102104.22;;;16.66;52.74
66398;BME280;54877;51.504;3.894;2023-04-29T09:07:35;102105.81;;;16.70;52.14
66398;BME280;54877;51.504;3.894;2023-04-29T09:10:03;102107.72;;;16.68;52.08
66398;BME280;54877;51.504;3.894;2023-04-29T09:12:29;102108.31;;;16.73;52.11
66398;BME280;54877;51.504;3.894;2023-04-29T09:14:54;102115.78;;;16.66;52.18
66398;BME280;54877;51.504;3.894;2023-04-29T09:17:36;102107.09;;;16.94;51.64
66398;BME280;54877;51.504;3.894;2023-04-29T09:20:27;102118.25;;;17.02;50.65
66398;BME280;54877;51.504;3.894;2023-04-29T09:22:53;102111.69;;;16.92;50.26
66398;BME280;54877;51.504;3.894;2023-04-29T09:25:24;102108.75;;;17.12;50.57
66398;BME280;54877;51.504;3.894;2023-04-29T09:27:51;102113.75;;;17.18;49.38
66398;BME280;54877;51.504;3.894;2023-04-29T09:30:16;102108.81;;;17.26;50.03
66398;BME280;54877;51.504;3.894;2023-04-29T09:32:43;102105.09;;;17.44;49.21
66398;BME280;54877;51.504;3.894;2023-04-29T09:35:25;102112.47;;;17.71;49.17
66398;BME280;54877;51.504;3.894;2023-04-29T09:37:52;102114.22;;;17.72;48.52
66398;BME280;54877;51.504;3.894;2023-04-29T09:40:32;102120.97;;;17.47;47.78
66398;BME280;54877;51.504;3.894;2023-04-29T09:42:58;102123.22;;;17.55;47.99
66398;BME280;54877;51.504;3.894;2023-04-29T09:45:37;102124.19;;;17.54;48.66
66398;BME280;54877;51.504;3.894;2023-04-29T09:48:08;102127.97;;;17.66;48.41
66398;BME280;54877;51.504;3.894;2023-04-29T09:50:34;102125.97;;;17.69;48.30
66398;BME280;54877;51.504;3.894;2023-04-29T09:53:04;102124.75;;;17.75;48.33
66398;BME280;54877;51.504;3.894;2023-04-29T09:55:32;102125.03;;;17.54;48.74
66398;BME280;54877;51.504;3.894;2023-04-29T09:57:58;102131.38;;;17.53;49.47
66398;BME280;54877;51.504;3.894;2023-04-29T10:00:24;102135.69;;;17.56;48.93
66398;BME280;54877;51.504;3.894;2023-04-29T10:02:55;102135.22;;;17.64;49.08
66398;BME280;54877;51.504;3.894;2023-04-29T10:05:24;102144.09;;;17.80;48.59
66398;BME280;54877;51.504;3.894;2023-04-29T10:07:52;102140.47;;;17.81;48.95
66398;BME280;54877;51.504;3.894;2023-04-29T10:10:18;102146.31;;;17.87;48.83
66398;BME280;54877;51.504;3.894;2023-04-29T10:12:45;102139.06;;;17.89;48.76
66398;BME280;54877;51.504;3.894;2023-04-29T10:17:51;102144.16;;;18.08;48.63
66398;BME280;54877;51.504;3.894;2023-04-29T10:20:22;102149.16;;;18.14;48.56
66398;BME280;54877;51.504;3.894;2023-04-29T10:22:50;102152.22;;;18.08;48.15
66398;BME280;54877;51.504;3.894;2023-04-29T10:25:18;102146.56;;;18.12;48.27
66398;BME280;54877;51.504;3.894;2023-04-29T10:27:44;102147.78;;;18.07;48.25
66398;BME280;54877;51.504;3.894;2023-04-29T10:30:12;102151.91;;;18.12;48.58
66398;BME280;54877;51.504;3.894;2023-04-29T10:32:41;102143.97;;;18.11;47.92
66398;BME280;54877;51.504;3.894;2023-04-29T10:35:09;102149.81;;;18.17;48.12
66398;BME280;54877;51.504;3.894;2023-04-29T10:37:39;102148.41;;;18.26;48.09
66398;BME280;54877;51.504;3.894;2023-04-29T10:40:11;102152.06;;;18.25;48.23
66398;BME280;54877;51.504;3.894;2023-04-29T10:42:47;102157.47;;;18.09;48.47
66398;BME280;54877;51.504;3.894;2023-04-29T10:53:03;102156.56;;;18.25;48.05
66398;BME280;54877;51.504;3.894;2023-04-29T10:55:29;102170.25;;;18.34;47.93
66398;BME280;54877;51.504;3.894;2023-04-29T10:57:59;102166.19;;;18.13;48.05
66398;BME280;54877;51.504;3.894;2023-04-29T11:00:27;102160.72;;;18.14;48.23
66398;BME280;54877;51.504;3.894;2023-04-29T11:02:54;102158.47;;;18.23;48.41
66398;BME280;54877;51.504;3.894;2023-04-29T11:05:29;102165.72;;;18.20;47.38
66398;BME280;54877;51.504;3.894;2023-04-29T11:08:18;102163.84;;;18.23;47.64
66398;BME280;54877;51.504;3.894;2023-04-29T11:11:09;102161.16;;;18.23;47.46
66398;BME280;54877;51.504;3.894;2023-04-29T11:13:39;102165.19;;;18.44;47.11
66398;BME280;54877;51.504;3.894;2023-04-29T11:16:09;102165.09;;;18.45;47.39
66398;BME280;54877;51.504;3.894;2023-04-29T11:18:36;102161.31;;;18.63;46.58
66398;BME280;54877;51.504;3.894;2023-04-29T11:21:21;102165.31;;;18.70;46.75
66398;BME280;54877;51.504;3.894;2023-04-29T11:23:47;102156.03;;;18.76;46.54
66398;BME280;54877;51.504;3.894;2023-04-29T11:26:18;102158.03;;;18.72;47.27
66398;BME280;54877;51.504;3.894;2023-04-29T11:28:44;102160.06;;;18.83;46.77
66398;BME280;54877;51.504;3.894;2023-04-29T11:31:09;102160.44;;;18.77;45.88
66398;BME280;54877;51.504;3.894;2023-04-29T11:33:35;102160.94;;;18.69;45.96
66398;BME280;54877;51.504;3.894;2023-04-29T11:36:01;102155.47;;;18.57;47.77
66398;BME280;54877;51.504;3.894;2023-04-29T11:38:28;102157.28;;;18.56;48.52
66398;BME280;54877;51.504;3.894;2023-04-29T11:40:55;102155.75;;;18.52;47.64
66398;BME280;54877;51.504;3.894;2023-04-29T11:43:22;102156.88;;;18.48;47.69
66398;BME280;54877;51.504;3.894;2023-04-29T11:45:48;102161.13;;;18.66;48.17
66398;BME280;54877;51.504;3.894;2023-04-29T11:48:22;102153.47;;;18.74;47.92
66398;BME280;54877;51.504;3.894;2023-04-29T11:50:49;102173.19;;;18.59;48.34
66398;BME280;54877;51.504;3.894;2023-04-29T11:53:20;102162.44;;;18.73;47.50
66398;BME280;54877;51.504;3.894;2023-04-29T11:55:48;102165.31;;;18.56;47.33
66398;BME280;54877;51.504;3.894;2023-04-29T11:58:13;102161.13;;;18.81;48.23
66398;BME280;54877;51.504;3.894;2023-04-29T12:00:40;102160.31;;;18.93;47.65
66398;BME280;54877;51.504;3.894;2023-04-29T12:03:12;102161.44;;;19.03;47.17
66398;BME280;54877;51.504;3.894;2023-04-29T12:05:38;102164.44;;;19.12;47.53
66398;BME280;54877;51.504;3.894;2023-04-29T12:08:05;102167.78;;;19.16;46.73
66398;BME280;54877;51.504;3.894;2023-04-29T12:10:34;102167.41;;;19.08;46.68
66398;BME280;54877;51.504;3.894;2023-04-29T12:13:00;102169.91;;;19.11;47.66
66398;BME280;54877;51.504;3.894;2023-04-29T12:15:25;102167.41;;;19.08;47.61
66398;BME280;54877;51.504;3.894;2023-04-29T12:17:53;102161.78;;;19.25;47.68
66398;BME280;54877;51.504;3.894;2023-04-29T12:20:19;102170.16;;;19.20;47.24
66398;BME280;54877;51.504;3.894;2023-04-29T12:22:45;102170.50;;;19.02;47.84
66398;BME280;54877;51.504;3.894;2023-04-29T12:25:10;102172.75;;;19.22;47.22
66398;BME280;54877;51.504;3.894;2023-04-29T12:27:38;102183.03;;;19.15;47.26
66398;BME280;54877;51.504;3.894;2023-04-29T12:30:05;102173.53;;;19.38;46.86
66398;BME280;54877;51.504;3.894;2023-04-29T12:32:33;102178.13;;;19.22;46.81
66398;BME280;54877;51.504;3.894;2023-04-29T12:34:58;102166.53;;;19.21;47.21
66398;BME280;54877;51.504;3.894;2023-04-29T12:37:24;102174.03;;;19.16;47.26
66398;BME280;54877;51.504;3.894;2023-04-29T12:39:50;102176.78;;;19.15;47.38
66398;BME280;54877;51.504;3.894;2023-04-29T12:42:16;102182.09;;;19.02;47.51
66398;BME280;54877;51.504;3.894;2023-04-29T12:44:45;102175.69;;;18.76;47.56
66398;BME280;54877;51.504;3.894;2023-04-29T12:47:14;102174.59;;;18.51;47.86
66398;BME280;54877;51.504;3.894;2023-04-29T12:49:43;102177.59;;;18.60;47.86
66398;BME280;54877;51.504;3.894;2023-04-29T12:52:09;102178.75;;;18.70;47.74
66398;BME280;54877;51.504;3.894;2023-04-29T12:54:35;102182.00;;;18.75;47.25
66398;BME280;54877;51.504;3.894;2023-04-29T12:57:01;102177.13;;;18.68;47.41
66398;BME280;54877;51.504;3.894;2023-04-29T12:59:27;102182.19;;;18.58;47.66
66398;BME280;54877;51.504;3.894;2023-04-29T13:01:52;102178.34;;;18.62;47.19
66398;BME280;54877;51.504;3.894;2023-04-29T13:04:18;102189.28;;;18.59;47.69
66398;BME280;54877;51.504;3.894;2023-04-29T13:06:43;102191.28;;;18.70;47.45